createdAt,value
2018-12-15T00:00:50.773Z,94523.86
2018-12-15T00:15:50.630Z,94516.56
2018-12-15T00:30:53.035Z,94520.66
2018-12-15T00:45:51.492Z,94502.20
2018-12-15T01:00:51.328Z,94501.75
2018-12-15T01:15:50.803Z,94498.48
2018-12-15T01:30:51.281Z,94499.02
2018-12-15T01:45:51.380Z,94478.45
2018-12-15T02:00:51.119Z,94494.98
2018-12-15T02:15:50.982Z,94470.55
2018-12-15T02:30:53.219Z,94470.19
2018-12-15T02:45:51.373Z,94468.46
2018-12-15T03:00:51.839Z,94452.34
2018-12-15T03:15:52.133Z,94454.73
2018-12-15T03:30:51.492Z,94473.41
2018-12-15T03:45:50.458Z,94468.41
2018-12-15T04:00:51.445Z,94456.75
2018-12-15T04:15:51.341Z,94461.92
2018-12-15T04:30:50.737Z,94469.70
2018-12-15T04:45:52.700Z,94462.61
2018-12-15T05:00:50.876Z,94469.63
2018-12-15T05:15:50.542Z,94471.45
2018-12-15T05:30:51.689Z,94464.44
2018-12-15T05:45:50.811Z,94461.72
2018-12-15T06:00:50.833Z,94465.08
2018-12-15T06:15:50.631Z,94461.85
2018-12-15T06:30:51.142Z,94480.95
2018-12-15T06:45:53.698Z,94495.23
2018-12-15T07:00:51.375Z,94483.48
2018-12-15T07:15:50.853Z,94498.45
2018-12-15T07:30:51.257Z,94522.69
2018-12-15T07:45:51.087Z,94522.73
2018-12-15T08:00:52.021Z,94533.04
2018-12-15T08:15:51.021Z,94531.11
2018-12-15T08:30:52.371Z,94525.74
2018-12-15T08:45:51.970Z,94520.80
2018-12-15T09:00:51.308Z,94517.66
2018-12-15T09:15:51.162Z,94516.17
2018-12-15T09:30:50.607Z,94491.36
2018-12-15T09:45:50.477Z,94469.56
2018-12-15T10:00:50.445Z,94479.36
2018-12-15T10:15:53.865Z,94466.92
2018-12-15T10:30:55.964Z,94461.02
2018-12-15T10:45:50.774Z,94433.36
2018-12-15T11:00:55.787Z,94400.12
2018-12-15T12:15:51.188Z,94330.81
2018-12-15T13:00:57.648Z,94340.46
2018-12-15T13:45:51.249Z,94351.69
2018-12-15T14:15:56.789Z,94340.16
2018-12-15T14:45:53.886Z,94328.42
2018-12-15T15:00:53.012Z,94316.20
2018-12-15T16:00:52.084Z,94315.05
2018-12-15T16:45:58.301Z,94315.05
2018-12-15T17:00:51.627Z,94304.91
2018-12-15T17:30:53.834Z,94306.97
2018-12-15T17:45:52.435Z,94300.98
2018-12-15T18:00:56.591Z,94324.89
2018-12-15T18:30:52.265Z,94310.56
2018-12-15T18:45:52.100Z,94310.05
2018-12-15T19:00:51.312Z,94301.22
2018-12-15T19:15:52.750Z,94290.04
2018-12-15T19:30:56.214Z,94299.66
2018-12-15T19:45:52.618Z,94288.72
2018-12-15T20:00:52.657Z,94289.49
2018-12-15T20:15:50.673Z,94285.34
2018-12-15T20:30:51.537Z,94286.34
2018-12-15T20:45:53.002Z,94271.28
2018-12-15T21:00:52.993Z,94268.95
2018-12-15T21:15:56.496Z,94262.50
2018-12-15T21:30:51.353Z,94216.98
2018-12-15T21:45:51.228Z,94253.10
2018-12-15T22:00:53.153Z,94246.86
2018-12-15T22:15:50.973Z,94225.30
2018-12-15T22:30:50.047Z,94212.31
2018-12-15T22:45:50.423Z,94193.59
2018-12-15T23:00:56.465Z,94198.49
2018-12-15T23:15:51.299Z,94183.95
2018-12-15T23:30:50.573Z,94174.34
2018-12-15T23:45:50.598Z,94156.16
